Dirección General De Aeronáutica Civil

Dirección Meteorológica de Chile - Servicios Climáticos

Informe General de Control de Calidad de la Estación

Listado de niveles de control de calidad para algunos parámetros
Estación Chorombo Hacienda (330076)
Fecha de Revisión de los datos :

Elementos

Registros Niveles de Control Total
Nivel 0 Nivel 1 Nivel 2 Nivel 3 Errores Porcentaje
01 Temperatura del Aire Seco 69.526 0 . 0 . 0 . 0 . 0 0.00 %
02 Temperatura de Rocío 53.643 0 . 0 . 0 . 0 . 0 0.00 %
03 Humedad Relativa del Aire 54.903 0 . 0 . 0 . 0 . 0 0.00 %
04 Temperatura Máxima PM 8.633 0 . 0 . 21 0.24 % 0 . 21 0.24 %
05 Temperatura Mínima AM 8.553 0 . 0 . 5 0.06 % 0 . 5 0.06 %
06 Viento a 10 m. de Altura 54.909 0 . 0 . 0 . 0 . 0 0.00 %
07 Agua Caida, Acumulada 6 Horas 8.800 0 . 0 . 0 . 0 . 0 0.00 %
08 Presión Atm. a Nivel de Estación (QFE) 54.903 0 . 0 . 0 . 0 . 0 0.00 %
09 Presión Atm. a Nivel Medio del Mar (QFF) 54.903 0 . 0 . 0 . 0 . 0 0.00 %
10 Presión Atm. Estándar OACI (QNH) 54.903 0 . 0 . 0 . 0 . 0 0.00 %

Totales

423.676 . 0.0000 % . 0.0000 % . 0.0061 % . 0.0000 % 26 0.0061 %

Detalle de Errores Recientes

Fecha del Dato Descripción Información Error Fecha Ingreso
1992-07-10 12:00:00 Temperatura 1.2 del 10-07-1992 12:00, Menor que la Mínima 3.2 10-07-1992 12:00 1.2 -- 3.2 2023-12-29 00:50:00
2004-09-11 12:00:00 Temperatura 5.0 del 11-09-2004 12:00, Menor que la Mínima 6.4 11-09-2004 12:00 5.0 -- 6.4 2023-12-31 02:35:00
2009-09-05 12:00:00 Temperatura 8.0 del 05-09-2009 12:00, Menor que la Mínima 10.0 05-09-2009 12:00 8.0 -- 10.0 2023-12-31 00:29:00
2009-11-03 12:00:00 Temperatura 9.0 del 03-11-2009 12:00, Menor que la Mínima 11.4 03-11-2009 12:00 9.0 -- 11.4 2023-12-31 00:29:00
1994-10-23 00:00:00 Temperatura 23.2 del 22-10-1994 18:00, Mayor que la Máxima 22.8 23-10-1994 00:00 23.2 -- 22.8 2023-12-29 00:52:00
1994-10-27 00:00:00 Temperatura 23.8 del 26-10-1994 18:00, Mayor que la Máxima 23.6 27-10-1994 00:00 23.8 -- 23.6 2023-12-29 00:52:00
1997-06-24 00:00:00 Temperatura 12.0 del 23-06-1997 18:00, Mayor que la Máxima 11.0 24-06-1997 00:00 12.0 -- 11.0 2023-12-29 00:55:00
1997-11-22 00:00:00 Temperatura 28.4 del 21-11-1997 18:00, Mayor que la Máxima 28.0 22-11-1997 00:00 28.4 -- 28.0 2023-12-29 00:55:00
1999-02-26 00:00:00 Temperatura 28.8 del 25-02-1999 18:00, Mayor que la Máxima 28.0 26-02-1999 00:00 28.8 -- 28.0 2023-12-29 00:56:00
1999-03-10 00:00:00 Temperatura 28.8 del 09-03-1999 18:00, Mayor que la Máxima 27.8 10-03-1999 00:00 28.8 -- 27.8 2023-12-29 00:56:00
1999-11-06 00:00:00 Temperatura 17.0 del 05-11-1999 18:00, Mayor que la Máxima 12.8 06-11-1999 00:00 17.0 -- 12.8 2023-12-29 00:57:00
2001-08-23 00:00:00 Temperatura 22.0 del 22-08-2001 18:00, Mayor que la Máxima 12.0 23-08-2001 00:00 22.0 -- 12.0 2023-12-29 00:58:00
2002-03-25 00:00:00 Temperatura 27.0 del 24-03-2002 18:00, Mayor que la Máxima 22.2 25-03-2002 00:00 27.0 -- 22.2 2023-12-29 00:58:00
2002-04-10 00:00:00 Temperatura 22.0 del 10-04-2002 00:00, Mayor que la Máxima 19.0 10-04-2002 00:00 22.0 -- 19.0 2023-12-29 00:58:00
2007-01-02 00:00:00 Temperatura 29.8 del 01-01-2007 18:00, Mayor que la Máxima 29.6 02-01-2007 00:00 29.8 -- 29.6 2023-12-31 01:30:00
2007-01-02 00:00:00 Temperatura 29.8 del 01-01-2007 18:00, Mayor que la Máxima 29.6 02-01-2007 00:00 29.8 -- 29.6 2023-12-31 01:30:00
2007-01-03 00:00:00 Temperatura 29.0 del 02-01-2007 18:00, Mayor que la Máxima 28.8 03-01-2007 00:00 29.0 -- 28.8 2023-12-31 01:30:00
2007-01-16 00:00:00 Temperatura 29.2 del 16-01-2007 00:00, Mayor que la Máxima 27.0 16-01-2007 00:00 29.2 -- 27.0 2023-12-31 01:30:00
2007-03-01 00:00:00 Temperatura 26.2 del 28-02-2007 18:00, Mayor que la Máxima 25.0 01-03-2007 00:00 26.2 -- 25.0 2023-12-31 01:30:00
Total de Errores Recientes 19

Detalle de Errores Encontrados

Nivel Fecha del Dato Descripción Información Error Fecha Ingreso
2 1992-07-10 12:00:00 Temperatura 1.2 del 10-07-1992 12:00, Menor que la Mínima 3.2 10-07-1992 12:00 1.2 -- 3.2 2023-12-29 00:50:00
2 2004-09-11 12:00:00 Temperatura 5.0 del 11-09-2004 12:00, Menor que la Mínima 6.4 11-09-2004 12:00 5.0 -- 6.4 2023-12-31 02:35:00
2 2009-09-05 12:00:00 Temperatura 8.0 del 05-09-2009 12:00, Menor que la Mínima 10.0 05-09-2009 12:00 8.0 -- 10.0 2023-12-31 00:29:00
2 2009-11-03 12:00:00 Temperatura 9.0 del 03-11-2009 12:00, Menor que la Mínima 11.4 03-11-2009 12:00 9.0 -- 11.4 2023-12-31 00:29:00
2 2022-05-24 12:00:00 Temperatura 7.6 del 24-05-2022 12:00, Menor que la Mínima 9.7 24-05-2022 12:00 7.6 -- 9.7 2022-05-24 12:21:00
2 1994-10-23 00:00:00 Temperatura 23.2 del 22-10-1994 18:00, Mayor que la Máxima 22.8 23-10-1994 00:00 23.2 -- 22.8 2023-12-29 00:52:00
2 1994-10-27 00:00:00 Temperatura 23.8 del 26-10-1994 18:00, Mayor que la Máxima 23.6 27-10-1994 00:00 23.8 -- 23.6 2023-12-29 00:52:00
2 1997-06-24 00:00:00 Temperatura 12.0 del 23-06-1997 18:00, Mayor que la Máxima 11.0 24-06-1997 00:00 12.0 -- 11.0 2023-12-29 00:55:00
2 1997-11-22 00:00:00 Temperatura 28.4 del 21-11-1997 18:00, Mayor que la Máxima 28.0 22-11-1997 00:00 28.4 -- 28.0 2023-12-29 00:55:00
2 1999-02-26 00:00:00 Temperatura 28.8 del 25-02-1999 18:00, Mayor que la Máxima 28.0 26-02-1999 00:00 28.8 -- 28.0 2023-12-29 00:56:00
2 1999-03-10 00:00:00 Temperatura 28.8 del 09-03-1999 18:00, Mayor que la Máxima 27.8 10-03-1999 00:00 28.8 -- 27.8 2023-12-29 00:56:00
2 1999-11-06 00:00:00 Temperatura 17.0 del 05-11-1999 18:00, Mayor que la Máxima 12.8 06-11-1999 00:00 17.0 -- 12.8 2023-12-29 00:57:00
2 2001-08-23 00:00:00 Temperatura 22.0 del 22-08-2001 18:00, Mayor que la Máxima 12.0 23-08-2001 00:00 22.0 -- 12.0 2023-12-29 00:58:00
2 2002-03-25 00:00:00 Temperatura 27.0 del 24-03-2002 18:00, Mayor que la Máxima 22.2 25-03-2002 00:00 27.0 -- 22.2 2023-12-29 00:58:00
2 2002-04-10 00:00:00 Temperatura 22.0 del 10-04-2002 00:00, Mayor que la Máxima 19.0 10-04-2002 00:00 22.0 -- 19.0 2023-12-29 00:58:00
2 2007-01-02 00:00:00 Temperatura 29.8 del 01-01-2007 18:00, Mayor que la Máxima 29.6 02-01-2007 00:00 29.8 -- 29.6 2023-12-31 01:30:00
2 2007-01-02 00:00:00 Temperatura 29.8 del 01-01-2007 18:00, Mayor que la Máxima 29.6 02-01-2007 00:00 29.8 -- 29.6 2023-12-31 01:30:00
2 2007-01-03 00:00:00 Temperatura 29.0 del 02-01-2007 18:00, Mayor que la Máxima 28.8 03-01-2007 00:00 29.0 -- 28.8 2023-12-31 01:30:00
2 2007-01-16 00:00:00 Temperatura 29.2 del 16-01-2007 00:00, Mayor que la Máxima 27.0 16-01-2007 00:00 29.2 -- 27.0 2023-12-31 01:30:00
2 2007-03-01 00:00:00 Temperatura 26.2 del 28-02-2007 18:00, Mayor que la Máxima 25.0 01-03-2007 00:00 26.2 -- 25.0 2023-12-31 01:30:00
2 2022-04-24 00:00:00 Temperatura 24.2 del 23-04-2022 19:00, Mayor que la Máxima 15.0 24-04-2022 00:00 24.2 -- 15.0 2022-04-24 00:21:00
2 2022-05-24 00:00:00 Temperatura 18.1 del 23-05-2022 17:00, Mayor que la Máxima 12.3 24-05-2022 00:00 18.1 -- 12.3 2022-05-24 00:21:00
2 2022-11-07 00:00:00 Temperatura 24.5 del 06-11-2022 19:00, Mayor que la Máxima 24.2 07-11-2022 00:00 24.5 -- 24.2 2022-11-07 03:09:00
2 2022-11-12 00:00:00 Temperatura 21.3 del 11-11-2022 17:00, Mayor que la Máxima 17.9 12-11-2022 00:00 21.3 -- 17.9 2022-11-12 01:09:00
2 2022-11-14 00:00:00 Temperatura 25.6 del 13-11-2022 18:00, Mayor que la Máxima 18.5 14-11-2022 00:00 25.6 -- 18.5 2022-11-14 01:09:00
2 2022-11-30 00:00:00 Temperatura 21.7 del 29-11-2022 18:00, Mayor que la Máxima 17.5 30-11-2022 00:00 21.7 -- 17.5 2022-11-30 00:09:00
Errores del Nivel 26
Informe generado el 23-02-2024 11:38
Requerimiento: RE6001